sensor_id;sensor_type;location;lat;lon;timestamp;pressure;altitude;pressure_sealevel;temperature;humidity
69460;BME280;57182;55.712;37.612;2022-09-27T00:01:34;99701.53;;;6.07;98.68
69460;BME280;57182;55.712;37.612;2022-09-27T00:04:02;99709.47;;;6.04;98.70
69460;BME280;57182;55.712;37.612;2022-09-27T00:06:30;99708.38;;;6.09;98.76
69460;BME280;57182;55.712;37.612;2022-09-27T00:08:58;99702.44;;;6.06;99.02
69460;BME280;57182;55.712;37.612;2022-09-27T00:11:37;99700.81;;;6.03;98.85
69460;BME280;57182;55.712;37.612;2022-09-27T00:14:06;99710.47;;;6.01;99.19
69460;BME280;57182;55.712;37.612;2022-09-27T00:16:35;99715.66;;;6.01;99.01
69460;BME280;57182;55.712;37.612;2022-09-27T00:19:11;99718.28;;;6.01;98.80
69460;BME280;57182;55.712;37.612;2022-09-27T00:21:41;99716.72;;;5.97;99.00
69460;BME280;57182;55.712;37.612;2022-09-27T00:24:13;99706.66;;;5.90;99.10
69460;BME280;57182;55.712;37.612;2022-09-27T00:26:41;99722.28;;;5.90;99.34
69460;BME280;57182;55.712;37.612;2022-09-27T00:29:10;99706.81;;;5.85;99.13
69460;BME280;57182;55.712;37.612;2022-09-27T00:31:37;99700.88;;;5.82;99.39
69460;BME280;57182;55.712;37.612;2022-09-27T00:34:06;99687.97;;;5.79;98.67
69460;BME280;57182;55.712;37.612;2022-09-27T00:36:34;99697.25;;;5.86;99.16
69460;BME280;57182;55.712;37.612;2022-09-27T00:39:02;99698.19;;;5.85;98.64
69460;BME280;57182;55.712;37.612;2022-09-27T00:41:32;99711.66;;;5.94;98.71
69460;BME280;57182;55.712;37.612;2022-09-27T00:44:04;99685.72;;;5.71;98.83
69460;BME280;57182;55.712;37.612;2022-09-27T00:47:10;99695.06;;;5.75;99.35
69460;BME280;57182;55.712;37.612;2022-09-27T00:49:46;99718.94;;;5.86;98.83
69460;BME280;57182;55.712;37.612;2022-09-27T00:54:56;99708.69;;;5.61;98.87
69460;BME280;57182;55.712;37.612;2022-09-27T00:57:26;99719.16;;;5.60;99.16
69460;BME280;57182;55.712;37.612;2022-09-27T01:00:00;99734.09;;;5.77;98.60
69460;BME280;57182;55.712;37.612;2022-09-27T01:02:29;99717.41;;;5.60;98.53
69460;BME280;57182;55.712;37.612;2022-09-27T01:04:57;99705.69;;;5.50;98.13
69460;BME280;57182;55.712;37.612;2022-09-27T01:07:25;99717.00;;;5.49;98.61
69460;BME280;57182;55.712;37.612;2022-09-27T01:09:53;99710.97;;;5.49;98.84
69460;BME280;57182;55.712;37.612;2022-09-27T01:17:36;99731.94;;;5.66;99.37
69460;BME280;57182;55.712;37.612;2022-09-27T01:20:45;99733.94;;;5.59;99.21
69460;BME280;57182;55.712;37.612;2022-09-27T01:34:08;99713.56;;;5.49;98.86
69460;BME280;57182;55.712;37.612;2022-09-27T01:36:45;99724.81;;;5.49;98.75
69460;BME280;57182;55.712;37.612;2022-09-27T01:42:31;99723.38;;;5.42;99.33
69460;BME280;57182;55.712;37.612;2022-09-27T01:45:14;99711.13;;;5.44;99.13
69460;BME280;57182;55.712;37.612;2022-09-27T01:48:22;99711.13;;;5.44;99.06
69460;BME280;57182;55.712;37.612;2022-09-27T01:54:01;99711.75;;;5.51;99.24
69460;BME280;57182;55.712;37.612;2022-09-27T01:56:36;99694.75;;;5.42;98.83
69460;BME280;57182;55.712;37.612;2022-09-27T01:59:23;99675.59;;;5.23;98.37
69460;BME280;57182;55.712;37.612;2022-09-27T02:02:09;99680.03;;;5.21;98.72
69460;BME280;57182;55.712;37.612;2022-09-27T02:05:09;99710.31;;;5.44;98.77
69460;BME280;57182;55.712;37.612;2022-09-27T02:07:46;99700.47;;;5.30;99.07
69460;BME280;57182;55.712;37.612;2022-09-27T02:10:23;99707.47;;;5.28;99.18
69460;BME280;57182;55.712;37.612;2022-09-27T02:13:16;99713.88;;;5.41;99.07
69460;BME280;57182;55.712;37.612;2022-09-27T02:16:08;99714.84;;;5.39;98.94
69460;BME280;57182;55.712;37.612;2022-09-27T02:21:19;99708.19;;;5.32;98.23
69460;BME280;57182;55.712;37.612;2022-09-27T02:23:52;99715.28;;;5.28;98.84
69460;BME280;57182;55.712;37.612;2022-09-27T02:26:26;99686.38;;;5.14;99.39
69460;BME280;57182;55.712;37.612;2022-09-27T02:29:13;99707.53;;;5.27;98.94
69460;BME280;57182;55.712;37.612;2022-09-27T02:31:48;99711.91;;;5.26;99.59
69460;BME280;57182;55.712;37.612;2022-09-27T02:34:27;99708.38;;;5.27;99.21
69460;BME280;57182;55.712;37.612;2022-09-27T02:36:56;99714.56;;;5.25;98.62
69460;BME280;57182;55.712;37.612;2022-09-27T02:39:24;99719.53;;;5.31;99.18
69460;BME280;57182;55.712;37.612;2022-09-27T02:42:03;99709.53;;;5.20;99.70
69460;BME280;57182;55.712;37.612;2022-09-27T02:44:31;99720.16;;;5.16;98.83
69460;BME280;57182;55.712;37.612;2022-09-27T03:04:14;99725.44;;;5.34;98.66
69460;BME280;57182;55.712;37.612;2022-09-27T03:06:45;99713.97;;;5.18;98.70
69460;BME280;57182;55.712;37.612;2022-09-27T03:09:18;99734.28;;;5.30;98.46
69460;BME280;57182;55.712;37.612;2022-09-27T03:11:46;99721.66;;;5.21;98.67
69460;BME280;57182;55.712;37.612;2022-09-27T03:14:14;99737.78;;;5.29;99.04
69460;BME280;57182;55.712;37.612;2022-09-27T03:16:53;99730.13;;;5.26;98.23
69460;BME280;57182;55.712;37.612;2022-09-27T03:19:39;99739.22;;;5.16;98.18
69460;BME280;57182;55.712;37.612;2022-09-27T03:22:25;99730.47;;;5.17;98.25
69460;BME280;57182;55.712;37.612;2022-09-27T03:24:52;99721.34;;;5.07;98.96
69460;BME280;57182;55.712;37.612;2022-09-27T03:27:19;99731.88;;;5.04;98.91
69460;BME280;57182;55.712;37.612;2022-09-27T03:29:46;99711.13;;;5.02;98.98
69460;BME280;57182;55.712;37.612;2022-09-27T03:32:15;99739.31;;;5.13;98.58
69460;BME280;57182;55.712;37.612;2022-09-27T03:35:05;99734.94;;;5.14;98.64
69460;BME280;57182;55.712;37.612;2022-09-27T03:37:33;99746.09;;;5.17;98.40
69460;BME280;57182;55.712;37.612;2022-09-27T03:40:01;99736.34;;;5.00;98.59
69460;BME280;57182;55.712;37.612;2022-09-27T03:42:28;99720.88;;;4.97;98.38
69460;BME280;57182;55.712;37.612;2022-09-27T03:44:55;99739.25;;;4.93;98.30
69460;BME280;57182;55.712;37.612;2022-09-27T03:47:23;99731.09;;;5.02;98.66
69460;BME280;57182;55.712;37.612;2022-09-27T03:49:50;99715.84;;;4.93;98.60
69460;BME280;57182;55.712;37.612;2022-09-27T03:52:18;99724.66;;;4.89;98.80
69460;BME280;57182;55.712;37.612;2022-09-27T03:54:45;99747.25;;;5.10;98.91
69460;BME280;57182;55.712;37.612;2022-09-27T03:57:12;99743.66;;;5.13;98.84
69460;BME280;57182;55.712;37.612;2022-09-27T03:59:40;99735.25;;;5.06;98.42
69460;BME280;57182;55.712;37.612;2022-09-27T04:02:46;99742.94;;;5.09;98.70
69460;BME280;57182;55.712;37.612;2022-09-27T04:05:19;99738.34;;;5.16;98.43
69460;BME280;57182;55.712;37.612;2022-09-27T04:07:48;99747.69;;;5.21;98.51
69460;BME280;57182;55.712;37.612;2022-09-27T04:10:16;99743.59;;;5.14;98.52
69460;BME280;57182;55.712;37.612;2022-09-27T04:12:44;99728.91;;;5.13;98.62
69460;BME280;57182;55.712;37.612;2022-09-27T04:15:12;99730.44;;;5.19;99.23
69460;BME280;57182;55.712;37.612;2022-09-27T04:17:49;99751.34;;;5.37;98.05
69460;BME280;57182;55.712;37.612;2022-09-27T04:20:32;99751.22;;;5.40;98.59
69460;BME280;57182;55.712;37.612;2022-09-27T04:23:03;99758.72;;;5.48;98.49
69460;BME280;57182;55.712;37.612;2022-09-27T04:25:33;99727.88;;;5.39;98.24
69460;BME280;57182;55.712;37.612;2022-09-27T04:28:21;99725.28;;;5.39;98.61
69460;BME280;57182;55.712;37.612;2022-09-27T04:30:49;99751.84;;;5.67;98.19
69460;BME280;57182;55.712;37.612;2022-09-27T04:33:34;99742.34;;;5.66;98.60
69460;BME280;57182;55.712;37.612;2022-09-27T04:36:05;99758.22;;;5.80;98.65
69460;BME280;57182;55.712;37.612;2022-09-27T04:39:10;99758.78;;;5.88;97.90
69460;BME280;57182;55.712;37.612;2022-09-27T04:41:47;99776.00;;;5.92;98.03
69460;BME280;57182;55.712;37.612;2022-09-27T04:44:14;99747.03;;;5.78;97.70
69460;BME280;57182;55.712;37.612;2022-09-27T04:46:46;99764.16;;;6.05;97.91
69460;BME280;57182;55.712;37.612;2022-09-27T04:49:13;99734.19;;;5.95;97.62
69460;BME280;57182;55.712;37.612;2022-09-27T04:51:43;99750.97;;;6.08;98.18
69460;BME280;57182;55.712;37.612;2022-09-27T04:54:11;99732.53;;;6.13;98.29
69460;BME280;57182;55.712;37.612;2022-09-27T04:56:46;99723.59;;;6.18;97.97
69460;BME280;57182;55.712;37.612;2022-09-27T04:59:14;99740.38;;;6.31;97.90
69460;BME280;57182;55.712;37.612;2022-09-27T05:01:42;99769.88;;;6.52;97.82
69460;BME280;57182;55.712;37.612;2022-09-27T05:04:30;99780.53;;;6.66;97.44
69460;BME280;57182;55.712;37.612;2022-09-27T05:06:59;99743.00;;;7.25;98.47
69460;BME280;57182;55.712;37.612;2022-09-27T05:09:34;99759.94;;;8.86;96.85
69460;BME280;57182;55.712;37.612;2022-09-27T05:12:02;99751.69;;;10.14;93.75
69460;BME280;57182;55.712;37.612;2022-09-27T05:14:31;99743.56;;;11.16;92.16
69460;BME280;57182;55.712;37.612;2022-09-27T05:17:16;99739.25;;;12.08;91.32
69460;BME280;57182;55.712;37.612;2022-09-27T05:20:20;99735.19;;;12.90;90.72
69460;BME280;57182;55.712;37.612;2022-09-27T05:23:08;99748.56;;;13.36;88.93
69460;BME280;57182;55.712;37.612;2022-09-27T05:25:37;99735.78;;;13.06;85.89
69460;BME280;57182;55.712;37.612;2022-09-27T05:28:04;99741.47;;;12.88;84.29
69460;BME280;57182;55.712;37.612;2022-09-27T05:30:32;99738.41;;;13.06;84.55
69460;BME280;57182;55.712;37.612;2022-09-27T05:33:07;99730.84;;;13.49;82.99
69460;BME280;57182;55.712;37.612;2022-09-27T05:35:53;99725.94;;;14.25;71.75
69460;BME280;57182;55.712;37.612;2022-09-27T05:38:28;99718.06;;;14.81;78.85
69460;BME280;57182;55.712;37.612;2022-09-27T05:40:58;99728.69;;;15.24;75.69
69460;BME280;57182;55.712;37.612;2022-09-27T05:43:26;99735.31;;;15.93;73.27
69460;BME280;57182;55.712;37.612;2022-09-27T05:45:57;99718.00;;;16.30;71.83
69460;BME280;57182;55.712;37.612;2022-09-27T05:48:25;99721.34;;;16.53;70.24
69460;BME280;57182;55.712;37.612;2022-09-27T05:51:00;99735.66;;;16.50;68.89
69460;BME280;57182;55.712;37.612;2022-09-27T05:53:29;99719.38;;;16.04;68.67
69460;BME280;57182;55.712;37.612;2022-09-27T05:56:02;99718.47;;;15.94;68.13
69460;BME280;57182;55.712;37.612;2022-09-27T05:58:50;99720.72;;;15.98;67.23
69460;BME280;57182;55.712;37.612;2022-09-27T06:01:18;99720.50;;;16.52;65.94
69460;BME280;57182;55.712;37.612;2022-09-27T06:04:18;99722.47;;;16.99;65.35
69460;BME280;57182;55.712;37.612;2022-09-27T06:07:09;99718.69;;;16.92;64.31
69460;BME280;57182;55.712;37.612;2022-09-27T06:09:36;99710.59;;;16.33;63.88
69460;BME280;57182;55.712;37.612;2022-09-27T06:12:06;99695.38;;;15.32;64.50
69460;BME280;57182;55.712;37.612;2022-09-27T06:14:37;99718.81;;;14.38;65.74
69460;BME280;57182;55.712;37.612;2022-09-27T06:17:09;99713.09;;;13.75;66.76
69460;BME280;57182;55.712;37.612;2022-09-27T06:19:39;99717.41;;;13.17;68.24
69460;BME280;57182;55.712;37.612;2022-09-27T06:22:08;99732.88;;;12.73;69.24
69460;BME280;57182;55.712;37.612;2022-09-27T06:24:42;99708.94;;;12.15;70.64
69460;BME280;57182;55.712;37.612;2022-09-27T06:27:18;99713.53;;;11.86;71.66
69460;BME280;57182;55.712;37.612;2022-09-27T06:30:23;99714.75;;;11.41;72.65
69460;BME280;57182;55.712;37.612;2022-09-27T06:33:10;99710.41;;;11.01;73.47
69460;BME280;57182;55.712;37.612;2022-09-27T06:35:40;99702.00;;;10.82;75.09
69460;BME280;57182;55.712;37.612;2022-09-27T06:38:17;99718.16;;;10.76;75.08
69460;BME280;57182;55.712;37.612;2022-09-27T06:41:01;99695.91;;;10.81;74.98
69460;BME280;57182;55.712;37.612;2022-09-27T06:43:47;99706.03;;;10.87;74.61
69460;BME280;57182;55.712;37.612;2022-09-27T06:46:34;99699.13;;;10.99;75.03
69460;BME280;57182;55.712;37.612;2022-09-27T06:49:11;99721.09;;;11.24;74.12
69460;BME280;57182;55.712;37.612;2022-09-27T06:51:42;99690.22;;;11.28;73.89
69460;BME280;57182;55.712;37.612;2022-09-27T06:54:10;99701.00;;;11.50;73.59
69460;BME280;57182;55.712;37.612;2022-09-27T06:56:38;99687.41;;;11.70;72.97
69460;BME280;57182;55.712;37.612;2022-09-27T06:59:07;99706.16;;;11.91;72.06
69460;BME280;57182;55.712;37.612;2022-09-27T07:02:12;99712.50;;;12.14;69.88
69460;BME280;57182;55.712;37.612;2022-09-27T07:05:09;99724.31;;;12.08;70.71
69460;BME280;57182;55.712;37.612;2022-09-27T07:07:57;99742.00;;;12.19;70.07
69460;BME280;57182;55.712;37.612;2022-09-27T07:10:29;99688.41;;;11.94;69.41
69460;BME280;57182;55.712;37.612;2022-09-27T07:13:04;99695.63;;;11.78;69.55
69460;BME280;57182;55.712;37.612;2022-09-27T07:15:33;99699.97;;;11.79;69.62
69460;BME280;57182;55.712;37.612;2022-09-27T07:18:08;99685.66;;;11.83;70.04
69460;BME280;57182;55.712;37.612;2022-09-27T07:20:35;99696.81;;;11.99;69.56
69460;BME280;57182;55.712;37.612;2022-09-27T07:23:06;99693.47;;;12.23;69.40
69460;BME280;57182;55.712;37.612;2022-09-27T07:25:34;99718.91;;;12.35;69.08
69460;BME280;57182;55.712;37.612;2022-09-27T07:28:06;99718.59;;;12.27;69.22
69460;BME280;57182;55.712;37.612;2022-09-27T07:30:36;99677.75;;;11.83;69.18
69460;BME280;57182;55.712;37.612;2022-09-27T07:33:04;99707.75;;;11.93;68.57
69460;BME280;57182;55.712;37.612;2022-09-27T07:35:32;99689.78;;;12.00;68.79
69460;BME280;57182;55.712;37.612;2022-09-27T07:38:06;99709.25;;;12.23;68.60
69460;BME280;57182;55.712;37.612;2022-09-27T07:40:40;99701.56;;;12.20;69.16
69460;BME280;57182;55.712;37.612;2022-09-27T07:43:08;99732.19;;;12.21;69.94
69460;BME280;57182;55.712;37.612;2022-09-27T07:45:38;99685.19;;;12.52;68.77
69460;BME280;57182;55.712;37.612;2022-09-27T07:48:25;99715.28;;;13.81;66.41
69460;BME280;57182;55.712;37.612;2022-09-27T07:51:28;99710.94;;;15.15;64.20
69460;BME280;57182;55.712;37.612;2022-09-27T07:54:06;99695.06;;;16.50;61.71
69460;BME280;57182;55.712;37.612;2022-09-27T07:56:46;99668.81;;;17.74;59.04
69460;BME280;57182;55.712;37.612;2022-09-27T07:59:45;99705.19;;;18.76;49.40
69460;BME280;57182;55.712;37.612;2022-09-27T08:02:21;99688.25;;;19.49;54.45
69460;BME280;57182;55.712;37.612;2022-09-27T08:05:10;99693.94;;;19.72;52.32
69460;BME280;57182;55.712;37.612;2022-09-27T08:07:41;99681.22;;;20.60;50.45
69460;BME280;57182;55.712;37.612;2022-09-27T08:10:28;99681.56;;;20.32;47.71
69460;BME280;57182;55.712;37.612;2022-09-27T08:13:03;99682.25;;;20.67;46.52
69460;BME280;57182;55.712;37.612;2022-09-27T08:15:38;99691.47;;;20.73;46.19
69460;BME280;57182;55.712;37.612;2022-09-27T08:18:17;99664.31;;;20.86;42.67
69460;BME280;57182;55.712;37.612;2022-09-27T08:21:34;99713.19;;;19.83;46.11
69460;BME280;57182;55.712;37.612;2022-09-27T08:24:18;99694.06;;;20.05;43.42
69460;BME280;57182;55.712;37.612;2022-09-27T08:27:23;99701.31;;;20.39;45.17
69460;BME280;57182;55.712;37.612;2022-09-27T08:29:52;99687.75;;;21.00;44.76
69460;BME280;57182;55.712;37.612;2022-09-27T08:32:25;99685.88;;;21.58;43.49
69460;BME280;57182;55.712;37.612;2022-09-27T08:35:11;99669.16;;;21.40;41.24
69460;BME280;57182;55.712;37.612;2022-09-27T08:45:45;99666.19;;;17.65;47.41
69460;BME280;57182;55.712;37.612;2022-09-27T08:51:49;99673.84;;;17.39;48.37
69460;BME280;57182;55.712;37.612;2022-09-27T08:54:29;99686.97;;;17.98;47.61
69460;BME280;57182;55.712;37.612;2022-09-27T08:57:05;99668.50;;;17.96;47.46
69460;BME280;57182;55.712;37.612;2022-09-27T08:59:44;99672.44;;;17.64;47.41
69460;BME280;57182;55.712;37.612;2022-09-27T09:02:23;99672.81;;;18.07;47.82
69460;BME280;57182;55.712;37.612;2022-09-27T09:04:56;99667.00;;;19.39;46.09
69460;BME280;57182;55.712;37.612;2022-09-27T09:07:39;99673.53;;;20.91;43.01
69460;BME280;57182;55.712;37.612;2022-09-27T09:10:42;99675.22;;;21.66;39.37
69460;BME280;57182;55.712;37.612;2022-09-27T09:13:48;99674.34;;;21.42;41.03
69460;BME280;57182;55.712;37.612;2022-09-27T09:19:22;99679.19;;;21.62;38.64
69460;BME280;57182;55.712;37.612;2022-09-27T09:22:20;99682.00;;;21.37;41.91
69460;BME280;57182;55.712;37.612;2022-09-27T09:27:37;99662.41;;;19.14;42.42
69460;BME280;57182;55.712;37.612;2022-09-27T09:30:24;99706.97;;;19.12;43.69
69460;BME280;57182;55.712;37.612;2022-09-27T09:35:52;99695.38;;;17.55;46.57
69460;BME280;57182;55.712;37.612;2022-09-27T09:43:54;99683.56;;;14.82;54.71
69460;BME280;57182;55.712;37.612;2022-09-27T09:51:46;99687.06;;;14.05;56.59
69460;BME280;57182;55.712;37.612;2022-09-27T09:54:26;99689.25;;;14.78;56.88
69460;BME280;57182;55.712;37.612;2022-09-27T09:59:48;99674.28;;;15.42;53.11
69460;BME280;57182;55.712;37.612;2022-09-27T10:02:38;99667.47;;;15.28;52.63
69460;BME280;57182;55.712;37.612;2022-09-27T10:05:13;99681.94;;;15.24;53.54
69460;BME280;57182;55.712;37.612;2022-09-27T10:07:44;99655.31;;;15.37;53.10
69460;BME280;57182;55.712;37.612;2022-09-27T10:10:16;99662.94;;;15.30;52.42
69460;BME280;57182;55.712;37.612;2022-09-27T10:12:54;99667.38;;;15.30;52.45
69460;BME280;57182;55.712;37.612;2022-09-27T10:15:29;99656.72;;;15.20;52.90
69460;BME280;57182;55.712;37.612;2022-09-27T10:18:00;99650.41;;;15.32;52.37
69460;BME280;57182;55.712;37.612;2022-09-27T10:24:54;99643.06;;;14.93;54.05
69460;BME280;57182;55.712;37.612;2022-09-27T10:28:43;99652.00;;;15.24;53.06
69460;BME280;57182;55.712;37.612;2022-09-27T10:31:19;99636.19;;;15.13;51.85
69460;BME280;57182;55.712;37.612;2022-09-27T10:40:45;99666.16;;;14.80;52.72
69460;BME280;57182;55.712;37.612;2022-09-27T10:46:12;99660.59;;;13.72;56.32
69460;BME280;57182;55.712;37.612;2022-09-27T10:48:48;99640.78;;;13.66;55.45
69460;BME280;57182;55.712;37.612;2022-09-27T10:51:39;99627.44;;;14.03;54.31
69460;BME280;57182;55.712;37.612;2022-09-27T10:54:23;99644.09;;;14.70;53.09
69460;BME280;57182;55.712;37.612;2022-09-27T10:56:59;99647.88;;;15.31;50.43
69460;BME280;57182;55.712;37.612;2022-09-27T10:59:29;99659.22;;;15.95;48.90
69460;BME280;57182;55.712;37.612;2022-09-27T11:01:59;99641.00;;;16.22;48.39
69460;BME280;57182;55.712;37.612;2022-09-27T11:04:37;99656.44;;;16.47;47.08
69460;BME280;57182;55.712;37.612;2022-09-27T11:07:12;99644.78;;;16.29;45.94
69460;BME280;57182;55.712;37.612;2022-09-27T11:09:53;99643.50;;;16.54;45.70
69460;BME280;57182;55.712;37.612;2022-09-27T11:12:23;99625.81;;;15.94;47.11
69460;BME280;57182;55.712;37.612;2022-09-27T11:14:56;99638.66;;;15.25;46.96
69460;BME280;57182;55.712;37.612;2022-09-27T11:17:32;99649.28;;;15.14;48.31
69460;BME280;57182;55.712;37.612;2022-09-27T11:20:41;99630.19;;;15.31;47.73
69460;BME280;57182;55.712;37.612;2022-09-27T11:23:15;99643.28;;;15.64;46.79
69460;BME280;57182;55.712;37.612;2022-09-27T11:28:42;99641.06;;;16.11;46.07
69460;BME280;57182;55.712;37.612;2022-09-27T11:31:56;99633.81;;;16.73;45.09
69460;BME280;57182;55.712;37.612;2022-09-27T11:34:39;99601.44;;;16.79;44.97
69460;BME280;57182;55.712;37.612;2022-09-27T11:46:00;99618.09;;;18.78;42.44
69460;BME280;57182;55.712;37.612;2022-09-27T11:54:52;99601.69;;;17.91;43.44
69460;BME280;57182;55.712;37.612;2022-09-27T11:57:31;99602.63;;;17.34;46.00
69460;BME280;57182;55.712;37.612;2022-09-27T12:00:21;99598.94;;;17.83;44.12
69460;BME280;57182;55.712;37.612;2022-09-27T12:09:52;99604.72;;;19.76;41.20
69460;BME280;57182;55.712;37.612;2022-09-27T12:12:27;99612.47;;;19.08;41.91
69460;BME280;57182;55.712;37.612;2022-09-27T12:15:04;99598.84;;;19.11;40.76
69460;BME280;57182;55.712;37.612;2022-09-27T12:17:40;99568.97;;;19.17;41.01
69460;BME280;57182;55.712;37.612;2022-09-27T12:20:34;99582.22;;;18.47;41.34
69460;BME280;57182;55.712;37.612;2022-09-27T12:23:13;99583.00;;;17.83;43.91
69460;BME280;57182;55.712;37.612;2022-09-27T12:25:58;99576.06;;;17.44;43.70
69460;BME280;57182;55.712;37.612;2022-09-27T12:28:34;99579.94;;;17.69;44.41
69460;BME280;57182;55.712;37.612;2022-09-27T12:31:15;99545.34;;;17.41;44.09
69460;BME280;57182;55.712;37.612;2022-09-27T12:34:21;99573.56;;;17.33;44.30
69460;BME280;57182;55.712;37.612;2022-09-27T12:37:18;99573.81;;;17.30;45.17
69460;BME280;57182;55.712;37.612;2022-09-27T12:42:43;99546.66;;;16.99;45.43
69460;BME280;57182;55.712;37.612;2022-09-27T12:45:38;99586.75;;;16.56;45.92
69460;BME280;57182;55.712;37.612;2022-09-27T12:48:24;99543.63;;;15.74;48.08
69460;BME280;57182;55.712;37.612;2022-09-27T12:51:13;99578.28;;;15.71;49.05
69460;BME280;57182;55.712;37.612;2022-09-27T12:57:04;99565.72;;;14.91;50.41
69460;BME280;57182;55.712;37.612;2022-09-27T13:00:20;99579.72;;;14.71;51.36
69460;BME280;57182;55.712;37.612;2022-09-27T13:03:16;99580.97;;;14.44;51.12
69460;BME280;57182;55.712;37.612;2022-09-27T13:14:18;99562.03;;;13.95;52.80
69460;BME280;57182;55.712;37.612;2022-09-27T13:16:48;99562.03;;;13.95;51.76
69460;BME280;57182;55.712;37.612;2022-09-27T13:22:04;99546.66;;;13.56;53.62
69460;BME280;57182;55.712;37.612;2022-09-27T13:24:53;99563.31;;;13.45;54.65
69460;BME280;57182;55.712;37.612;2022-09-27T13:27:47;99535.59;;;13.29;53.84
69460;BME280;57182;55.712;37.612;2022-09-27T13:38:35;99557.72;;;13.26;54.67
69460;BME280;57182;55.712;37.612;2022-09-27T13:41:19;99521.53;;;12.82;57.05
69460;BME280;57182;55.712;37.612;2022-09-27T13:47:01;99561.91;;;12.94;55.97
69460;BME280;57182;55.712;37.612;2022-09-27T13:49:35;99559.84;;;12.86;57.31
69460;BME280;57182;55.712;37.612;2022-09-27T13:52:30;99560.84;;;12.73;58.12
69460;BME280;57182;55.712;37.612;2022-09-27T13:58:51;99534.00;;;12.68;57.81
69460;BME280;57182;55.712;37.612;2022-09-27T14:01:50;99551.31;;;12.83;58.75
69460;BME280;57182;55.712;37.612;2022-09-27T14:04:40;99556.84;;;12.80;59.55
69460;BME280;57182;55.712;37.612;2022-09-27T14:07:15;99515.06;;;12.62;58.59
69460;BME280;57182;55.712;37.612;2022-09-27T14:10:02;99543.03;;;12.76;57.92
69460;BME280;57182;55.712;37.612;2022-09-27T14:12:44;99536.81;;;12.53;57.85
69460;BME280;57182;55.712;37.612;2022-09-27T14:15:25;99527.56;;;12.48;58.76
69460;BME280;57182;55.712;37.612;2022-09-27T14:17:55;99514.59;;;12.34;58.19
69460;BME280;57182;55.712;37.612;2022-09-27T14:24:25;99543.53;;;12.57;59.56
69460;BME280;57182;55.712;37.612;2022-09-27T14:27:06;99545.34;;;12.57;60.03
69460;BME280;57182;55.712;37.612;2022-09-27T14:32:24;99532.25;;;12.32;61.18
69460;BME280;57182;55.712;37.612;2022-09-27T14:35:06;99546.34;;;12.43;60.64
69460;BME280;57182;55.712;37.612;2022-09-27T14:38:02;99547.41;;;12.41;60.58
69460;BME280;57182;55.712;37.612;2022-09-27T14:41:04;99545.38;;;12.44;61.81
69460;BME280;57182;55.712;37.612;2022-09-27T14:43:35;99548.97;;;12.43;60.82
69460;BME280;57182;55.712;37.612;2022-09-27T14:46:04;99535.41;;;12.37;60.76
69460;BME280;57182;55.712;37.612;2022-09-27T14:48:37;99552.16;;;12.36;61.02
69460;BME280;57182;55.712;37.612;2022-09-27T14:53:49;99546.31;;;12.20;62.20
69460;BME280;57182;55.712;37.612;2022-09-27T14:56:21;99528.25;;;12.03;62.20
69460;BME280;57182;55.712;37.612;2022-09-27T14:58:54;99524.38;;;11.95;64.03
69460;BME280;57182;55.712;37.612;2022-09-27T15:01:30;99536.78;;;11.93;63.13
69460;BME280;57182;55.712;37.612;2022-09-27T15:04:07;99508.31;;;11.75;63.78
69460;BME280;57182;55.712;37.612;2022-09-27T15:06:38;99496.50;;;11.55;63.40
69460;BME280;57182;55.712;37.612;2022-09-27T15:09:06;99526.09;;;11.71;64.32
69460;BME280;57182;55.712;37.612;2022-09-27T15:11:41;99480.88;;;11.41;64.93
69460;BME280;57182;55.712;37.612;2022-09-27T15:14:15;99515.97;;;11.53;65.62
69460;BME280;57182;55.712;37.612;2022-09-27T15:16:48;99502.31;;;11.35;64.86
69460;BME280;57182;55.712;37.612;2022-09-27T15:21:53;99525.53;;;11.54;65.21
69460;BME280;57182;55.712;37.612;2022-09-27T15:24:38;99503.16;;;11.48;66.70
69460;BME280;57182;55.712;37.612;2022-09-27T15:27:32;99507.03;;;11.30;66.78
69460;BME280;57182;55.712;37.612;2022-09-27T15:29:59;99497.06;;;11.35;66.22
69460;BME280;57182;55.712;37.612;2022-09-27T15:32:29;99499.78;;;11.21;66.36
69460;BME280;57182;55.712;37.612;2022-09-27T15:35:05;99482.88;;;11.12;67.57
69460;BME280;57182;55.712;37.612;2022-09-27T15:37:37;99500.31;;;11.26;66.89
69460;BME280;57182;55.712;37.612;2022-09-27T15:43:01;99508.09;;;11.27;66.93
69460;BME280;57182;55.712;37.612;2022-09-27T15:45:34;99489.81;;;11.13;66.96
69460;BME280;57182;55.712;37.612;2022-09-27T15:48:15;99495.91;;;11.26;68.11
69460;BME280;57182;55.712;37.612;2022-09-27T15:50:43;99486.13;;;11.16;67.60
69460;BME280;57182;55.712;37.612;2022-09-27T15:56:03;99492.75;;;11.09;68.46
69460;BME280;57182;55.712;37.612;2022-09-27T15:58:35;99477.91;;;10.95;68.92
69460;BME280;57182;55.712;37.612;2022-09-27T16:01:04;99482.31;;;10.95;68.30
69460;BME280;57182;55.712;37.612;2022-09-27T16:03:32;99451.31;;;10.87;68.96
69460;BME280;57182;55.712;37.612;2022-09-27T16:06:00;99504.72;;;11.13;68.72
69460;BME280;57182;55.712;37.612;2022-09-27T16:08:28;99496.00;;;11.12;68.64
69460;BME280;57182;55.712;37.612;2022-09-27T16:10:58;99479.50;;;10.98;68.97
69460;BME280;57182;55.712;37.612;2022-09-27T16:13:28;99478.13;;;11.05;68.87
69460;BME280;57182;55.712;37.612;2022-09-27T16:16:01;99456.69;;;10.86;69.53
69460;BME280;57182;55.712;37.612;2022-09-27T16:18:29;99460.25;;;10.85;69.48
69460;BME280;57182;55.712;37.612;2022-09-27T16:20:58;99449.63;;;10.86;69.34
69460;BME280;57182;55.712;37.612;2022-09-27T16:23:25;99476.94;;;10.96;69.38
69460;BME280;57182;55.712;37.612;2022-09-27T16:25:52;99462.69;;;10.88;69.60
69460;BME280;57182;55.712;37.612;2022-09-27T16:28:19;99477.28;;;10.92;70.13
69460;BME280;57182;55.712;37.612;2022-09-27T16:30:47;99443.63;;;10.71;69.65
69460;BME280;57182;55.712;37.612;2022-09-27T16:33:14;99471.41;;;10.88;69.55